Time;durP1;ratioP1;P1;durP2;ratioP2;P2;SDS_P1;SDS_P2;PMS_P1;PMS_P2;Temp;Humidity;BMP_temperature;BMP_pressure;BME280_temperature;BME280_humidity;BME280_pressure;Samples;Min_cycle;Max_cycle;Signal;HPM_P1;HPM_P2
2023/05/04 00:01:58;;;;;;;3.70;3.40;;;8.80;1.00;;;;;;5136359;27;20399;-77
2023/05/04 00:04:33;;;;;;;7.67;2.97;;;10.90;1.00;;;;;;5136575;27;20750;-77
2023/05/04 00:07:20;;;;;;;7.27;3.10;;;8.70;1.00;;;;;;5117851;27;20420;-77
2023/05/04 00:09:46;;;;;;;5.53;3.50;;;8.70;1.00;;;;;;5135944;27;20386;-77
2023/05/04 00:12:12;;;;;;;10.40;3.60;;;8.60;1.00;;;;;;5134482;27;20422;-79
2023/05/04 00:14:45;;;;;;;3.40;3.10;;;8.60;1.00;;;;;;5135926;27;20240;-78
2023/05/04 00:17:11;;;;;;;4.60;3.10;;;8.50;1.00;;;;;;5135918;27;20185;-74
2023/05/04 00:19:39;;;;;;;4.97;3.20;;;8.60;1.00;;;;;;5135569;27;20398;-78
2023/05/04 00:22:05;;;;;;;6.07;3.60;;;8.50;1.00;;;;;;5135614;27;20383;-78
2023/05/04 00:24:30;;;;;;;5.97;3.17;;;8.50;1.00;;;;;;5135453;27;20387;-78
2023/05/04 00:26:56;;;;;;;6.80;3.60;;;8.40;1.00;;;;;;5134341;27;20543;-77
2023/05/04 00:29:22;;;;;;;4.70;3.20;;;8.40;1.00;;;;;;5134825;27;20173;-77
2023/05/04 00:31:51;;;;;;;5.53;2.80;;;8.30;1.00;;;;;;5135696;27;20153;-78
2023/05/04 00:34:21;;;;;;;7.10;3.40;;;8.30;1.00;;;;;;5136005;27;20164;-77
2023/05/04 00:36:57;;;;;;;14.43;3.00;;;8.20;1.00;;;;;;5134303;27;20530;-77
2023/05/04 00:39:45;;;;;;;7.00;3.80;;;8.20;1.00;;;;;;5135912;27;20390;-78
2023/05/04 00:42:32;;;;;;;6.67;4.20;;;8.10;1.00;;;;;;5135718;27;20481;-77
2023/05/04 00:44:58;;;;;;;7.13;4.13;;;8.10;1.00;;;;;;5134845;27;20418;-77
2023/05/04 00:47:33;;;;;;;9.43;3.60;;;8.10;1.00;;;;;;5135601;27;20387;-77
2023/05/04 00:49:59;;;;;;;6.57;4.00;;;8.10;1.00;;;;;;5135270;27;20172;-73
2023/05/04 00:52:25;;;;;;;6.87;3.30;;;8.00;1.00;;;;;;5135388;27;20900;-72
2023/05/04 00:54:53;;;;;;;7.40;3.50;;;8.00;1.00;;;;;;5124379;27;20173;-72
2023/05/04 00:57:19;;;;;;;4.63;3.33;;;8.00;1.00;;;;;;5135144;27;20463;-73
2023/05/04 00:59:46;;;;;;;4.17;3.53;;;8.00;1.00;;;;;;5135389;27;20383;-73
2023/05/04 01:02:12;;;;;;;6.10;3.83;;;7.90;1.00;;;;;;5135104;27;20386;-73
2023/05/04 01:04:38;;;;;;;4.97;3.57;;;7.90;1.00;;;;;;5135479;27;20383;-73
2023/05/04 01:07:26;;;;;;;6.10;3.80;;;7.90;1.00;;;;;;5134162;27;20179;-73
2023/05/04 01:10:09;;;;;;;5.00;3.47;;;7.90;1.00;;;;;;5116555;27;20499;-73
2023/05/04 01:12:47;;;;;;;5.90;3.03;;;7.90;1.00;;;;;;5134946;27;20394;-72
2023/05/04 01:15:14;;;;;;;4.57;3.20;;;7.90;1.00;;;;;;5135047;27;20442;-73
2023/05/04 01:17:48;;;;;;;4.37;3.50;;;7.90;1.00;;;;;;5135163;27;20459;-76
2023/05/04 01:20:15;;;;;;;12.97;3.67;;;7.90;1.00;;;;;;5133302;27;20478;-73
2023/05/04 01:22:45;;;;;;;5.40;3.93;;;7.90;1.00;;;;;;5134855;27;20725;-73
2023/05/04 01:25:11;;;;;;;4.40;3.23;;;7.80;1.00;;;;;;5116542;27;20414;-72
2023/05/04 01:27:45;;;;;;;6.60;3.60;;;7.80;1.00;;;;;;5134690;27;20393;-73
2023/05/04 01:30:27;;;;;;;4.07;3.67;;;7.80;1.00;;;;;;5114970;27;20173;-73
2023/05/04 01:32:59;;;;;;;5.20;4.10;;;7.80;1.00;;;;;;5096201;28;20407;-77
2023/05/04 01:35:25;;;;;;;5.57;3.60;;;7.80;1.00;;;;;;5114117;28;20946;-72
2023/05/04 01:37:51;;;;;;;3.77;3.47;;;7.70;1.00;;;;;;5095862;28;20426;-73
2023/05/04 01:40:17;;;;;;;3.70;3.33;;;7.70;1.00;;;;;;5114003;28;20366;-72
2023/05/04 01:42:42;;;;;;;9.93;3.70;;;7.70;1.00;;;;;;5123028;27;20176;-73
2023/05/04 01:45:09;;;;;;;5.67;3.90;;;7.60;1.00;;;;;;5130888;27;20591;-73
2023/05/04 01:47:35;;;;;;;11.17;3.90;;;7.60;1.00;;;;;;5133282;28;20904;-72
2023/05/04 01:50:01;;;;;;;5.07;3.50;;;7.60;1.00;;;;;;5116225;28;20446;-73
2023/05/04 01:52:26;;;;;;;11.80;5.00;;;7.60;1.00;;;;;;5134511;28;20161;-73
2023/05/04 01:54:52;;;;;;;7.63;3.77;;;7.60;1.00;;;;;;5134474;28;20211;-72
2023/05/04 01:57:17;;;;;;;8.73;3.87;;;7.50;1.00;;;;;;5116872;28;20182;-73
2023/05/04 01:59:43;;;;;;;5.47;3.93;;;7.50;1.00;;;;;;5113898;28;20507;-72
2023/05/04 02:02:09;;;;;;;4.87;3.37;;;7.50;1.00;;;;;;5113758;28;20649;-73
2023/05/04 02:04:51;;;;;;;25.73;3.60;;;7.50;1.00;;;;;;5116925;28;20246;-78
2023/05/04 02:07:27;;;;;;;6.90;4.40;;;7.50;1.00;;;;;;5134595;28;20387;-77
2023/05/04 02:09:52;;;;;;;7.73;4.43;;;7.50;1.00;;;;;;5134366;28;20531;-78
2023/05/04 02:12:27;;;;;;;5.17;3.80;;;7.40;1.00;;;;;;5131901;28;20517;-77
2023/05/04 02:15:03;;;;;;;5.53;3.70;;;7.40;1.00;;;;;;5134230;28;20162;-77
2023/05/04 02:17:33;;;;;;;8.10;4.60;;;7.40;1.00;;;;;;5134406;28;20386;-77
2023/05/04 02:20:03;;;;;;;6.80;4.70;;;7.30;1.00;;;;;;5135374;28;20385;-77
2023/05/04 02:22:33;;;;;;;5.23;3.83;;;7.30;1.00;;;;;;5134269;28;20519;-77
2023/05/04 02:25:03;;;;;;;6.33;3.80;;;7.30;1.00;;;;;;5133025;28;20395;-77
2023/05/04 02:27:33;;;;;;;9.30;4.27;;;7.30;1.00;;;;;;5134730;28;20379;-77
2023/05/04 02:30:27;;;;;;;19.80;4.23;;;7.30;1.00;;;;;;5134429;28;20535;-77
2023/05/04 02:33:03;;;;;;;4.00;3.40;;;7.30;1.00;;;;;;5134515;28;20383;-77
2023/05/04 02:35:28;;;;;;;4.20;3.80;;;7.30;1.00;;;;;;5134527;28;20470;-73
2023/05/04 02:37:54;;;;;;;7.50;3.50;;;7.30;1.00;;;;;;5134081;28;20805;-73
2023/05/04 02:40:20;;;;;;;9.03;4.43;;;7.30;1.00;;;;;;5132131;28;20588;-72
2023/05/04 02:42:45;;;;;;;5.47;3.40;;;7.30;1.00;;;;;;5121843;28;20173;-72
2023/05/04 02:45:12;;;;;;;16.07;4.10;;;7.30;1.00;;;;;;5113605;28;20472;-73
2023/05/04 02:47:37;;;;;;;6.60;4.10;;;7.30;1.00;;;;;;5095280;28;20181;-73
2023/05/04 02:50:03;;;;;;;4.87;4.30;;;7.20;1.00;;;;;;5114099;28;20427;-78
2023/05/04 02:52:29;;;;;;;5.17;3.80;;;7.20;1.00;;;;;;5113474;28;20173;-78
2023/05/04 02:55:03;;;;;;;8.43;4.83;;;7.20;1.00;;;;;;5120086;27;20928;-78
2023/05/04 02:57:29;;;;;;;5.17;4.00;;;7.20;1.00;;;;;;5117221;28;20158;-77
2023/05/04 02:59:57;;;;;;;11.23;4.40;;;7.20;1.00;;;;;;5117146;28;20387;-78
2023/05/04 03:02:33;;;;;;;12.27;4.70;;;7.20;1.00;;;;;;5117011;28;20482;-78
2023/05/04 03:05:32;;;;;;;6.00;4.37;;;7.20;1.00;;;;;;5117749;28;20387;-85
2023/05/04 03:08:03;;;;;;;7.40;4.70;;;7.20;1.00;;;;;;5117222;28;20931;-83
2023/05/04 03:13:51;;;;;;;5.70;4.20;;;7.20;1.00;;;;;;5137422;27;20797;-82
2023/05/04 03:19:38;;;;;;;7.37;4.80;;;7.10;1.00;;;;;;5137960;27;20172;-89
2023/05/04 03:25:26;;;;;;;6.30;5.30;;;7.10;1.00;;;;;;5136639;27;20192;-89
2023/05/04 03:31:14;;;;;;;6.77;4.43;;;7.00;1.00;;;;;;5137750;27;20623;-89
2023/05/04 03:34:21;;;;;;;3.53;3.23;;;7.00;1.00;;;;;;5137777;27;20395;-89
2023/05/04 03:37:27;;;;;;;9.00;3.90;;;7.00;1.00;;;;;;5136369;27;20679;-83
2023/05/04 03:39:57;;;;;;;5.23;4.30;;;7.00;1.00;;;;;;5118519;27;20402;-83
2023/05/04 03:42:33;;;;;;;11.03;4.50;;;7.10;1.00;;;;;;5137020;27;20383;-83
2023/05/04 03:45:33;;;;;;;9.40;4.33;;;7.10;1.00;;;;;;5134971;27;20941;-82
2023/05/04 03:48:33;;;;;;;9.07;5.03;;;7.00;1.00;;;;;;5118376;27;20430;-82
2023/05/04 03:51:09;;;;;;;5.60;4.50;;;7.10;1.00;;;;;;5116391;27;20443;-88
2023/05/04 03:53:35;;;;;;;6.53;4.80;;;7.00;1.00;;;;;;5125312;27;20551;-88
2023/05/04 03:56:03;;;;;;;9.67;5.30;;;7.10;1.00;;;;;;5136514;27;20485;-88
2023/05/04 03:58:45;;;;;;;7.97;4.77;;;7.00;1.00;;;;;;5136729;27;20506;-88
2023/05/04 04:04:33;;;;;;;13.50;5.20;;;7.10;1.00;;;;;;5121448;27;20390;-81
2023/05/04 04:07:03;;;;;;;4.97;4.47;;;7.10;1.00;;;;;;5099855;28;20432;-81
2023/05/04 04:09:45;;;;;;;6.03;4.80;;;7.10;1.00;;;;;;5097618;28;20629;-81
2023/05/04 04:12:21;;;;;;;5.50;4.67;;;7.20;1.00;;;;;;5115835;28;20783;-81
2023/05/04 04:14:51;;;;;;;6.50;4.80;;;7.10;1.00;;;;;;5115500;27;20723;-81
2023/05/04 04:17:21;;;;;;;8.17;4.33;;;7.10;1.00;;;;;;5115237;28;20451;-81
2023/05/04 04:20:33;;;;;;;8.17;5.33;;;7.20;1.00;;;;;;5132595;27;20417;-89
2023/05/04 04:26:34;;;;;;;13.07;5.87;;;7.20;1.00;;;;;;5136714;27;20478;-89
2023/05/04 04:35:47;;;;;;;8.57;4.93;;;7.50;1.00;;;;;;5116113;28;20484;-81
2023/05/04 04:38:39;;;;;;;8.90;4.80;;;7.60;1.00;;;;;;5096875;28;20439;-81
2023/05/04 04:41:33;;;;;;;8.70;4.63;;;7.60;1.00;;;;;;5115193;28;20470;-81
2023/05/04 04:44:10;;;;;;;7.80;5.00;;;7.70;1.00;;;;;;5115079;28;20388;-81
2023/05/04 04:46:51;;;;;;;6.40;5.20;;;7.70;1.00;;;;;;5096803;28;20869;-81
2023/05/04 04:49:21;;;;;;;5.10;4.50;;;7.80;1.00;;;;;;5111267;28;20419;-81
2023/05/04 04:52:33;;;;;;;8.47;4.90;;;7.90;1.00;;;;;;5115696;28;20457;-89
2023/05/04 04:55:33;;;;;;;6.97;5.20;;;7.90;1.00;;;;;;5117493;27;20402;-90
2023/05/04 04:58:33;;;;;;;8.73;4.83;;;8.00;1.00;;;;;;5097359;28;20428;-88
2023/05/04 05:01:33;;;;;;;6.77;4.60;;;8.10;1.00;;;;;;5097532;28;20411;-89
2023/05/04 05:07:33;;;;;;;14.53;5.03;;;8.30;1.00;;;;;;5127549;27;20466;-89
2023/05/04 05:16:40;;;;;;;9.60;4.97;;;8.60;1.00;;;;;;5114859;28;20470;-89
2023/05/04 05:19:45;;;;;;;6.90;4.40;;;8.70;1.00;;;;;;5117186;27;20414;-89
2023/05/04 05:25:33;;;;;;;8.90;4.67;;;8.90;1.00;;;;;;5134030;27;20414;-89
2023/05/04 05:28:33;;;;;;;9.33;4.83;;;9.10;1.00;;;;;;5136036;27;20394;-89
2023/05/04 05:31:33;;;;;;;9.50;4.07;;;9.20;1.00;;;;;;5117381;27;20204;-89
2023/05/04 05:34:33;;;;;;;13.50;4.67;;;9.30;1.00;;;;;;5110654;27;20401;-89
2023/05/04 05:37:33;;;;;;;10.57;5.10;;;9.40;1.00;;;;;;5117405;27;20428;-89
2023/05/04 05:40:33;;;;;;;5.47;4.73;;;9.60;1.00;;;;;;5117265;28;20404;-89
2023/05/04 05:49:42;;;;;;;10.50;4.60;;;9.90;1.00;;;;;;5135159;27;20739;-90
2023/05/04 05:52:33;;;;;;;9.10;5.13;;;10.00;1.00;;;;;;5117448;28;20423;-90
2023/05/04 05:55:03;;;;;;;8.77;4.93;;;10.10;1.00;;;;;;5112262;28;20236;-90
2023/05/04 05:57:33;;;;;;;7.90;5.43;;;10.20;1.00;;;;;;5117002;28;20451;-90
2023/05/04 06:04:03;;;;;;;9.80;5.00;;;10.40;1.00;;;;;;5135186;28;20383;-90
2023/05/04 06:06:28;;;;;;;6.67;4.70;;;10.50;1.00;;;;;;5115748;28;20393;-89
2023/05/04 06:09:04;;;;;;;5.20;4.73;;;10.70;1.00;;;;;;5116549;28;20758;-90
2023/05/04 06:11:33;;;;;;;5.73;4.67;;;10.80;1.00;;;;;;5116976;28;20161;-90
2023/05/04 06:14:21;;;;;;;10.63;4.97;;;10.90;1.00;;;;;;5117045;28;20366;-90
2023/05/04 06:16:47;;;;;;;9.97;4.77;;;11.00;1.00;;;;;;5115097;28;20420;-90
2023/05/04 06:19:36;;;;;;;11.13;4.80;;;11.10;1.00;;;;;;5116639;28;20401;-90
2023/05/04 06:22:33;;;;;;;17.83;6.13;;;11.20;1.00;;;;;;5106241;28;20576;-90
2023/05/04 06:24:59;;;;;;;14.27;5.03;;;11.30;1.00;;;;;;5114389;28;20400;-90
2023/05/04 06:28:03;;;;;;;10.67;5.60;;;11.40;1.00;;;;;;5113218;28;20488;-91
2023/05/04 06:31:03;;;;;;;15.47;5.63;;;11.50;1.00;;;;;;5100303;28;20161;-91
2023/05/04 06:33:57;;;;;;;9.97;5.43;;;11.70;1.00;;;;;;5100090;28;20378;-90
2023/05/04 06:37:03;;;;;;;14.97;5.90;;;11.80;1.00;;;;;;5127316;27;20454;-90
2023/05/04 06:43:03;;;;;;;19.03;6.23;;;12.10;1.00;;;;;;5130562;27;20409;-90
2023/05/04 06:45:34;;;;;;;11.40;6.00;;;12.30;1.00;;;;;;5116881;27;20427;-91
2023/05/04 06:48:33;;;;;;;10.20;5.93;;;12.40;1.00;;;;;;5108813;28;20486;-88
2023/05/04 06:51:03;;;;;;;12.60;5.80;;;12.50;1.00;;;;;;5099526;28;20432;-88
2023/05/04 06:54:03;;;;;;;10.83;4.87;;;16.10;1.00;;;;;;5117235;28;20477;-82
2023/05/04 06:56:33;;;;;;;8.60;5.00;;;12.80;1.00;;;;;;5116981;28;20467;-82
2023/05/04 06:59:04;;;;;;;6.77;5.00;;;12.80;1.00;;;;;;5098804;28;20406;-82
2023/05/04 07:01:40;;;;;;;13.80;5.20;;;13.00;1.00;;;;;;5117104;27;20917;-81
2023/05/04 07:04:06;;;;;;;7.80;5.43;;;13.10;1.00;;;;;;5130696;27;20528;-82
2023/05/04 07:06:57;;;;;;;9.53;4.93;;;13.20;1.00;;;;;;5118298;27;20470;-82
2023/05/04 07:09:27;;;;;;;7.47;4.90;;;13.30;1.00;;;;;;5116808;27;20174;-82
2023/05/04 07:11:57;;;;;;;8.93;4.70;;;13.40;1.00;;;;;;5113822;28;20473;-81
2023/05/04 07:14:33;;;;;;;9.63;4.60;;;13.60;1.00;;;;;;5098594;28;20382;-81
2023/05/04 07:17:03;;;;;;;6.63;5.07;;;13.70;1.00;;;;;;5116961;28;20504;-82
2023/05/04 07:19:33;;;;;;;8.53;4.70;;;13.80;1.00;;;;;;5116849;28;20765;-82
2023/05/04 07:22:03;;;;;;;11.73;5.13;;;13.90;1.00;;;;;;5121634;27;20426;-82
2023/05/04 07:24:39;;;;;;;14.63;5.50;;;14.10;1.00;;;;;;5137317;27;20421;-81
2023/05/04 07:27:36;;;;;;;6.30;4.00;;;14.20;1.00;;;;;;5117193;27;20405;-82
2023/05/04 07:30:05;;;;;;;5.53;4.33;;;14.20;1.00;;;;;;5136574;27;20754;-81
2023/05/04 07:32:33;;;;;;;6.80;4.60;;;14.40;1.00;;;;;;5136675;27;20386;-82
2023/05/04 07:35:04;;;;;;;4.97;4.47;;;14.60;1.00;;;;;;5130026;27;20419;-84
2023/05/04 07:38:21;;;;;;;8.13;4.50;;;14.70;1.00;;;;;;5125304;27;20436;-82
2023/05/04 07:41:03;;;;;;;6.83;4.37;;;14.80;1.00;;;;;;5136719;27;20441;-81
2023/05/04 07:44:04;;;;;;;5.10;4.23;;;14.90;1.00;;;;;;5118412;27;20377;-83
2023/05/04 07:46:30;;;;;;;8.03;4.83;;;15.00;1.00;;;;;;5117693;27;20906;-83
2023/05/04 07:49:04;;;;;;;5.50;4.60;;;15.10;1.00;;;;;;5116488;27;20469;-83
2023/05/04 07:51:33;;;;;;;5.80;4.50;;;15.20;1.00;;;;;;5114528;28;20705;-83
2023/05/04 07:54:04;;;;;;;7.30;4.33;;;15.20;1.00;;;;;;5125147;27;20437;-82
2023/05/04 07:56:34;;;;;;;5.73;4.90;;;15.40;1.00;;;;;;5115881;28;20521;-84
2023/05/04 07:59:18;;;;;;;6.83;4.80;;;15.40;1.00;;;;;;5126604;27;20439;-83
2023/05/04 08:02:03;;;;;;;8.17;4.43;;;15.60;1.00;;;;;;5116084;28;20394;-84
2023/05/04 08:05:03;;;;;;;10.40;4.87;;;15.90;1.00;;;;;;5115941;28;20358;-83
2023/05/04 08:07:33;;;;;;;7.60;4.83;;;16.10;1.00;;;;;;5116196;27;20997;-89
2023/05/04 08:13:21;;;;;;;5.37;4.63;;;16.50;1.00;;;;;;5136759;27;20399;-90
2023/05/04 08:19:33;;;;;;;9.53;4.77;;;16.90;1.00;;;;;;5134629;27;20460;-91
2023/05/04 08:22:03;;;;;;;6.23;4.60;;;17.00;1.00;;;;;;5109669;28;20436;-91
2023/05/04 08:25:04;;;;;;;5.17;4.60;;;17.00;1.00;;;;;;5098413;28;20394;-91
2023/05/04 08:27:33;;;;;;;11.20;5.50;;;17.10;1.00;;;;;;5116274;28;20451;-90
2023/05/04 08:33:33;;;;;;;8.57;4.83;;;17.50;1.00;;;;;;5134310;27;20485;-91
2023/05/04 08:36:33;;;;;;;25.77;5.73;;;17.60;1.00;;;;;;5118225;27;20419;-91
2023/05/04 08:39:03;;;;;;;9.37;5.30;;;17.80;1.00;;;;;;5118176;27;20413;-84
2023/05/04 08:42:03;;;;;;;12.03;5.70;;;17.90;1.00;;;;;;5133953;27;20512;-84
2023/05/04 08:45:13;;;;;;;14.90;6.30;;;18.00;1.00;;;;;;5135891;27;20496;-83
2023/05/04 08:48:08;;;;;;;14.00;5.70;;;17.90;1.00;;;;;;5117227;27;20388;-84
2023/05/04 08:50:35;;;;;;;8.00;5.60;;;18.20;1.00;;;;;;5115317;27;20532;-84
2023/05/04 08:53:04;;;;;;;22.77;5.30;;;18.30;1.00;;;;;;5135862;27;20446;-90
2023/05/04 08:56:08;;;;;;;7.93;5.40;;;18.50;1.00;;;;;;5117825;27;20442;-91
2023/05/04 08:58:36;;;;;;;5.87;4.53;;;18.70;1.00;;;;;;5136123;27;20381;-91
2023/05/04 09:04:34;;;;;;;8.00;4.63;;;19.10;1.00;;;;;;5135755;27;20916;-91
2023/05/04 09:07:33;;;;;;;9.27;5.40;;;19.20;1.00;;;;;;5136165;27;20838;-91
2023/05/04 09:14:03;;;;;;;7.90;5.07;;;19.20;1.00;;;;;;5115152;28;20492;-91
2023/05/04 09:17:24;;;;;;;5.13;4.50;;;19.30;1.00;;;;;;5097153;28;20444;-91
2023/05/04 09:20:04;;;;;;;6.50;4.93;;;19.60;1.00;;;;;;5114107;28;20409;-90
2023/05/04 09:22:34;;;;;;;6.07;5.40;;;19.70;1.00;;;;;;5096542;28;20419;-91
2023/05/04 09:25:34;;;;;;;9.03;5.10;;;19.70;1.00;;;;;;5115146;28;20392;-84
2023/05/04 09:28:03;;;;;;;8.03;5.00;;;19.80;1.00;;;;;;5118260;27;20437;-84
2023/05/04 09:30:33;;;;;;;7.07;5.10;;;19.90;1.00;;;;;;5134854;27;20871;-84
2023/05/04 09:33:03;;;;;;;8.10;5.33;;;19.90;1.00;;;;;;5134823;27;20872;-82
2023/05/04 09:35:34;;;;;;;6.20;5.37;;;19.90;1.00;;;;;;5130746;27;21005;-82
2023/05/04 09:38:03;;;;;;;9.63;4.70;;;19.90;1.00;;;;;;5114195;28;20392;-81
2023/05/04 09:41:03;;;;;;;7.37;5.07;;;19.80;1.00;;;;;;5097329;28;20416;-89
2023/05/04 09:43:45;;;;;;;7.67;5.20;;;19.90;1.00;;;;;;5096824;28;20412;-89
2023/05/04 09:46:33;;;;;;;6.57;4.90;;;19.90;1.00;;;;;;5117308;27;20996;-89
2023/05/04 09:49:34;;;;;;;5.70;4.80;;;20.20;1.00;;;;;;5135452;27;20397;-89
2023/05/04 09:52:03;;;;;;;5.67;4.83;;;20.40;1.00;;;;;;5117053;28;20973;-89
2023/05/04 09:54:35;;;;;;;6.37;5.07;;;20.40;1.00;;;;;;5131333;28;20583;-81
2023/05/04 09:57:30;;;;;;;5.83;4.33;;;20.50;1.00;;;;;;5100317;28;21069;-81
2023/05/04 10:00:16;;;;;;;6.10;4.50;;;20.50;1.00;;;;;;5051194;28;20425;-81
2023/05/04 10:02:46;;;;;;;5.47;4.60;;;20.70;1.00;;;;;;5051946;28;20401;-81
2023/05/04 10:08:35;;;;;;;12.80;5.10;;;20.90;1.00;;;;;;5055254;28;20396;-75
2023/05/04 10:11:01;;;;;;;9.43;4.70;;;21.00;1.00;;;;;;5055294;28;20419;-74
2023/05/04 10:13:28;;;;;;;9.07;5.20;;;21.00;1.00;;;;;;5053640;28;20444;-74
2023/05/04 10:16:17;;;;;;;7.23;4.37;;;21.00;1.00;;;;;;5054989;28;20190;-74
2023/05/04 10:19:09;;;;;;;11.93;4.00;;;20.90;1.00;;;;;;5055118;28;20395;-74
2023/05/04 10:21:57;;;;;;;7.63;4.50;;;21.00;1.00;;;;;;5054430;28;20432;-74
2023/05/04 10:24:37;;;;;;;5.73;4.50;;;21.00;1.00;;;;;;5035258;28;20422;-74
2023/05/04 10:27:15;;;;;;;8.63;4.33;;;21.10;1.00;;;;;;5035096;28;20422;-74
2023/05/04 10:29:47;;;;;;;6.67;4.67;;;21.20;1.00;;;;;;5034831;28;21076;-74
2023/05/04 10:32:22;;;;;;;12.70;4.87;;;21.10;1.00;;;;;;5035004;28;20504;-74
2023/05/04 10:35:03;;;;;;;5.30;4.70;;;21.00;1.00;;;;;;5034729;28;20411;-74
2023/05/04 10:37:30;;;;;;;6.73;4.10;;;21.00;1.00;;;;;;5101904;27;20864;-74
2023/05/04 10:40:10;;;;;;;8.90;4.20;;;21.20;1.00;;;;;;5137991;27;20750;-81
2023/05/04 10:42:57;;;;;;;7.47;4.60;;;21.40;1.00;;;;;;5138203;27;20401;-81
2023/05/04 10:45:34;;;;;;;7.53;4.50;;;21.40;1.00;;;;;;5124762;27;20424;-83
2023/05/04 10:48:32;;;;;;;7.60;3.90;;;21.60;1.00;;;;;;5103908;27;20425;-84
2023/05/04 10:51:45;;;;;;;6.27;4.23;;;21.80;1.00;;;;;;5128945;27;20794;-82
2023/05/04 10:57:34;;;;;;;6.00;4.30;;;22.00;1.00;;;;;;5116720;28;20575;-81
2023/05/04 11:03:23;;;;;;;4.60;4.20;;;22.10;1.00;;;;;;5117101;28;20935;-80
2023/05/04 11:05:51;;;;;;;4.57;4.17;;;22.20;1.00;;;;;;5117140;28;20486;-79
2023/05/04 11:08:49;;;;;;;10.23;4.20;;;22.20;1.00;;;;;;5118948;27;20437;-82
2023/05/04 11:11:39;;;;;;;5.47;4.87;;;22.20;1.00;;;;;;5117650;28;20398;-83
2023/05/04 11:14:40;;;;;;;8.53;4.60;;;22.10;1.00;;;;;;5098149;28;20429;-84
2023/05/04 11:17:06;;;;;;;4.97;3.40;;;21.90;1.00;;;;;;5046323;28;20500;-80
2023/05/04 11:20:03;;;;;;;4.37;3.97;;;22.00;1.00;;;;;;5044810;28;20443;-82
2023/05/04 11:22:35;;;;;;;5.27;4.77;;;22.20;1.00;;;;;;5054327;28;20957;-79
2023/05/04 11:25:04;;;;;;;6.83;4.23;;;22.10;1.00;;;;;;5054087;28;20944;-79
2023/05/04 11:27:34;;;;;;;4.13;3.77;;;22.40;1.00;;;;;;5053955;28;20410;-80
2023/05/04 11:30:04;;;;;;;4.77;4.37;;;22.50;1.00;;;;;;5053828;28;20916;-80
2023/05/04 11:32:46;;;;;;;6.07;3.50;;;22.50;1.00;;;;;;5053982;28;20450;-81
2023/05/04 11:35:51;;;;;;;6.33;3.77;;;22.60;1.00;;;;;;5052723;28;20490;-81
2023/05/04 11:39:10;;;;;;;4.70;3.57;;;22.70;1.00;;;;;;5051672;28;20628;-80
2023/05/04 11:41:40;;;;;;;6.20;3.87;;;22.90;1.00;;;;;;5040465;28;20969;-73
2023/05/04 11:44:07;;;;;;;5.07;3.83;;;23.10;1.00;;;;;;5032825;28;20474;-73
2023/05/04 11:46:33;;;;;;;5.40;4.57;;;23.20;1.00;;;;;;5033342;28;20410;-73
2023/05/04 11:48:59;;;;;;;7.17;4.30;;;23.20;1.00;;;;;;5041423;28;20429;-73
2023/05/04 11:51:27;;;;;;;6.20;3.60;;;23.30;1.00;;;;;;5053015;28;20427;-73
2023/05/04 11:53:53;;;;;;;10.37;3.73;;;23.30;1.00;;;;;;5088950;27;20435;-73
2023/05/04 11:56:28;;;;;;;8.43;3.30;;;23.40;1.00;;;;;;5123963;27;20548;-81
2023/05/04 11:59:10;;;;;;;7.90;4.20;;;23.40;1.00;;;;;;5136590;27;20630;-80
2023/05/04 12:04:58;;;;;;;5.70;3.57;;;23.30;1.00;;;;;;5124783;27;20450;-80
2023/05/04 12:08:15;;;;;;;7.23;3.57;;;23.40;1.00;;;;;;5115956;27;20428;-80
2023/05/04 12:10:41;;;;;;;6.20;3.90;;;23.60;1.00;;;;;;5118838;27;20244;-76
2023/05/04 12:13:16;;;;;;;4.63;3.27;;;23.70;1.00;;;;;;5098113;28;20439;-75
2023/05/04 12:15:42;;;;;;;6.83;4.00;;;23.60;1.00;;;;;;5115579;28;22093;-75
2023/05/04 12:18:20;;;;;;;4.97;3.33;;;23.80;1.00;;;;;;5115139;27;20420;-75
2023/05/04 12:20:47;;;;;;;5.97;3.60;;;23.90;1.00;;;;;;5115533;28;20387;-75
2023/05/04 12:23:12;;;;;;;5.17;3.90;;;24.20;1.00;;;;;;5115662;28;20445;-75
2023/05/04 12:25:38;;;;;;;4.30;3.53;;;24.20;1.00;;;;;;5115029;28;20399;-75
2023/05/04 12:28:10;;;;;;;4.27;3.53;;;24.20;1.00;;;;;;5119622;27;20175;-75
2023/05/04 12:30:35;;;;;;;3.80;3.50;;;24.40;1.00;;;;;;5115604;28;20187;-75
2023/05/04 12:33:04;;;;;;;3.87;3.57;;;24.50;1.00;;;;;;5114756;27;20966;-74
2023/05/04 12:35:29;;;;;;;4.50;4.00;;;24.50;1.00;;;;;;5118730;27;20168;-73
2023/05/04 12:37:55;;;;;;;5.60;3.17;;;24.50;1.00;;;;;;5120480;27;20434;-73
2023/05/04 12:43:42;;;;;;;7.37;3.57;;;24.50;1.00;;;;;;5131272;27;20262;-80
2023/05/04 12:46:33;;;;;;;3.90;3.30;;;24.60;1.00;;;;;;5114821;28;20508;-80
2023/05/04 12:49:27;;;;;;;5.73;3.50;;;24.60;1.00;;;;;;5123143;27;20185;-80
2023/05/04 12:52:15;;;;;;;7.60;3.77;;;24.80;1.00;;;;;;5135290;27;20437;-80
2023/05/04 12:55:16;;;;;;;4.37;3.60;;;24.80;1.00;;;;;;5135030;27;20485;-80
2023/05/04 12:57:43;;;;;;;4.17;3.10;;;24.70;1.00;;;;;;5135745;27;20445;-77
2023/05/04 13:00:10;;;;;;;3.43;3.13;;;24.80;1.00;;;;;;5135531;27;20386;-76
2023/05/04 13:02:36;;;;;;;5.07;3.70;;;24.80;1.00;;;;;;5123368;27;20430;-78
2023/05/04 13:05:10;;;;;;;4.23;3.47;;;24.80;1.00;;;;;;5114807;28;20563;-77
2023/05/04 13:07:35;;;;;;;3.63;3.33;;;25.00;1.00;;;;;;5103457;28;20183;-75
2023/05/04 13:10:01;;;;;;;3.27;2.80;;;25.10;1.00;;;;;;5120609;27;20442;-74
2023/05/04 13:16:15;;;;;;;5.03;3.47;;;25.20;1.00;;;;;;5130494;27;20202;-80
2023/05/04 13:18:58;;;;;;;7.03;3.70;;;25.30;1.00;;;;;;5105175;28;20419;-80
2023/05/04 13:21:34;;;;;;;4.50;3.30;;;25.50;1.00;;;;;;5123325;27;20404;-80
2023/05/04 13:24:33;;;;;;;4.63;4.00;;;25.60;1.00;;;;;;5116485;27;20413;-80
2023/05/04 13:26:59;;;;;;;4.60;3.73;;;25.50;1.00;;;;;;5116872;27;20463;-75
2023/05/04 13:29:25;;;;;;;4.70;3.77;;;25.40;1.00;;;;;;5128436;27;20511;-75
2023/05/04 13:31:52;;;;;;;4.70;3.70;;;25.40;1.00;;;;;;5134764;27;20160;-75
2023/05/04 13:34:17;;;;;;;8.60;3.60;;;25.40;1.00;;;;;;5123467;27;20424;-75
2023/05/04 13:36:46;;;;;;;9.87;3.70;;;25.50;1.00;;;;;;5121811;27;20447;-74
2023/05/04 13:39:12;;;;;;;4.30;3.70;;;25.60;1.00;;;;;;5126778;27;20225;-74
2023/05/04 13:41:38;;;;;;;11.80;3.67;;;25.70;1.00;;;;;;5122740;27;20434;-74
2023/05/04 13:44:04;;;;;;;5.83;3.50;;;25.70;1.00;;;;;;5114192;28;20429;-74
2023/05/04 13:46:29;;;;;;;4.10;3.70;;;25.80;1.00;;;;;;5119788;27;20180;-74
2023/05/04 13:48:55;;;;;;;3.60;3.30;;;26.00;1.00;;;;;;5132416;27;20162;-74
2023/05/04 13:51:21;;;;;;;4.80;3.37;;;25.90;1.00;;;;;;5117416;28;20185;-75
2023/05/04 13:53:47;;;;;;;6.90;3.50;;;26.00;1.00;;;;;;5111197;28;20599;-74
2023/05/04 13:56:33;;;;;;;5.17;3.80;;;25.80;1.00;;;;;;5134836;28;20190;-80
2023/05/04 13:59:04;;;;;;;3.53;3.33;;;26.00;1.00;;;;;;5114048;28;20695;-80
2023/05/04 14:01:34;;;;;;;10.10;3.50;;;26.10;1.00;;;;;;5113967;28;20771;-80
2023/05/04 14:04:04;;;;;;;3.97;3.47;;;26.00;1.00;;;;;;5113835;28;20439;-80
2023/05/04 14:06:34;;;;;;;4.20;3.67;;;25.90;1.00;;;;;;5116013;28;20423;-81
2023/05/04 14:08:59;;;;;;;10.30;3.80;;;25.90;1.00;;;;;;5125113;28;20423;-79
2023/05/04 14:11:34;;;;;;;4.40;2.93;;;25.80;1.00;;;;;;5114131;28;21059;-79
2023/05/04 14:14:45;;;;;;;4.83;3.40;;;25.90;1.00;;;;;;5116466;28;20226;-81
2023/05/04 14:17:33;;;;;;;5.90;3.57;;;26.00;1.00;;;;;;5099685;28;20443;-80
2023/05/04 14:26:46;;;;;;;4.50;3.70;;;26.00;1.00;;;;;;5113840;28;20427;-75
2023/05/04 14:29:11;;;;;;;7.97;4.00;;;26.20;1.00;;;;;;5130110;28;20436;-75
2023/05/04 14:31:40;;;;;;;3.00;2.80;;;26.20;1.00;;;;;;5127955;28;20465;-74
2023/05/04 14:34:05;;;;;;;6.43;3.70;;;26.30;1.00;;;;;;5113665;28;20163;-74
2023/05/04 14:36:34;;;;;;;5.27;3.40;;;26.00;1.00;;;;;;5114431;28;20886;-75
2023/05/04 14:39:01;;;;;;;8.03;3.23;;;25.80;1.00;;;;;;5123493;28;20711;-76
2023/05/04 14:41:32;;;;;;;4.70;3.33;;;25.90;1.00;;;;;;5122912;28;20417;-79
2023/05/04 14:44:04;;;;;;;4.07;3.20;;;25.90;1.00;;;;;;5126649;28;20405;-79
2023/05/04 14:46:40;;;;;;;3.50;3.17;;;26.20;1.00;;;;;;5113456;28;20465;-80
2023/05/04 14:49:23;;;;;;;11.33;3.03;;;26.50;1.00;;;;;;5114321;28;20428;-84
2023/05/04 14:52:04;;;;;;;4.30;3.07;;;26.70;1.00;;;;;;5128957;27;20443;-82
2023/05/04 14:54:34;;;;;;;6.67;3.20;;;26.90;1.00;;;;;;5098922;28;20417;-80
2023/05/04 14:57:01;;;;;;;2.97;2.73;;;27.00;1.00;;;;;;5117444;28;20442;-75
2023/05/04 14:59:27;;;;;;;3.70;2.83;;;27.00;1.00;;;;;;5098618;28;20756;-75
2023/05/04 15:01:53;;;;;;;3.53;3.03;;;27.10;1.00;;;;;;5128541;27;20439;-75
2023/05/04 15:04:19;;;;;;;4.13;2.47;;;27.20;1.00;;;;;;5117948;27;20164;-75
2023/05/04 15:06:45;;;;;;;6.80;2.83;;;27.30;1.00;;;;;;5098839;27;20966;-75
2023/05/04 15:09:11;;;;;;;3.50;2.80;;;27.40;1.00;;;;;;5123099;27;20182;-75
2023/05/04 15:11:37;;;;;;;3.20;2.90;;;27.50;1.00;;;;;;5119041;27;20452;-75
2023/05/04 15:14:03;;;;;;;4.13;3.30;;;27.50;1.00;;;;;;5137224;27;20425;-75
2023/05/04 15:16:31;;;;;;;6.83;3.10;;;27.60;1.00;;;;;;5131524;27;20275;-75
2023/05/04 15:18:57;;;;;;;3.10;2.80;;;28.40;1.00;;;;;;5106693;27;20226;-75
2023/05/04 15:21:34;;;;;;;5.00;2.67;;;29.10;1.00;;;;;;5126728;27;20930;-77
2023/05/04 15:24:04;;;;;;;3.10;2.70;;;30.50;1.00;;;;;;5130471;27;20529;-77
2023/05/04 15:26:30;;;;;;;2.97;2.67;;;31.40;1.00;;;;;;5135720;27;20456;-77
2023/05/04 15:32:18;;;;;;;2.43;2.23;;;32.60;1.00;;;;;;5116151;28;20655;-80